This is the latest recevied weather packets stored in our database for station/object KQ7A. If no packets are shown the sender has not sent any weather packets the latest 10 day(s).
| Time | Temp. | Humidity | Pressure | Rain* | Wind** | Luminosity | Snow |
|---|---|---|---|---|---|---|---|
| 1777746883 | 17.78° C | 51% | 1017 hPa | 0 mm | - | 452 W/m² | - |
| 1777746578 | 17.78° C | 47% | 1017 hPa | 0 mm | - | 515 W/m² | - |
| 1777746274 | 17.22° C | 51% | 1017.4 hPa | 0 mm | - | 543 W/m² | - |
| 1777745970 | 16.67° C | 53% | 1017.4 hPa | 0 mm | - | 456 W/m² | - |
| 1777745669 | 16.67° C | 52% | 1017.4 hPa | 0 mm | - | 343 W/m² | - |
| 1777745367 | 16.11° C | 54% | 1017.3 hPa | 0 mm | - | 261 W/m² | - |
| 1777745064 | 16.67° C | 48% | 1017.5 hPa | 0 mm | - | 248 W/m² | - |
| 1777744760 | 16.11° C | 50% | 1017.3 hPa | 0 mm | - | 255 W/m² | - |
| 1777744455 | 15.56° C | 54% | 1017.6 hPa | 0 mm | - | 288 W/m² | - |
| 1777744151 | 15.56° C | 54% | 1017.6 hPa | 0 mm | - | 314 W/m² | - |
| 1777743848 | 15.56° C | 58% | 1017.5 hPa | 0 mm | - | 300 W/m² | - |
| 1777743545 | 15.56° C | 57% | 1017.6 hPa | 0 mm | - | 305 W/m² | - |
| 1777743242 | 15.56° C | 54% | 1017.8 hPa | 0 mm | - | 301 W/m² | - |
| 1777742941 | 15° C | 53% | 1017.5 hPa | 0 mm | - | 329 W/m² | - |
| 1777742637 | 14.44° C | 56% | 1017.7 hPa | 0 mm | - | 397 W/m² | - |
| 1777742333 | 14.44° C | 57% | 1017.5 hPa | 0 mm | - | 373 W/m² | - |
| 1777742029 | 14.44° C | 54% | 1017.6 hPa | 0 mm | - | 375 W/m² | - |
| 1777741726 | 13.89° C | 54% | 1017.7 hPa | 0 mm | - | 292 W/m² | - |
| 1777741423 | 13.89° C | 56% | 1017.6 hPa | 0 mm | - | 255 W/m² | - |
| 1777741119 | 13.89° C | 56% | 1017.8 hPa | 0 mm | - | 234 W/m² | - |
| 1777740816 | 13.89° C | 56% | 1017.7 hPa | 0 mm | - | 228 W/m² | - |
| 1777740513 | 13.89° C | 56% | 1017.7 hPa | 0 mm | - | 237 W/m² | - |
| 1777740210 | 13.33° C | 56% | 1017.5 hPa | 0 mm | - | 266 W/m² | - |
| 1777739906 | 13.33° C | 59% | 1017.7 hPa | 0 mm | - | 267 W/m² | - |
| 1777739602 | 13.33° C | 60% | 1017.6 hPa | 0 mm | - | 252 W/m² | - |
* Rain latest hour (hover to see other rain measurements)
** Current wind speed in m/s (hover to see current wind gust speed)